createdAt,value
2019-03-23T00:00:36.227Z,173.33
2019-03-23T00:05:39.757Z,157.97
2019-03-23T00:10:43.039Z,147.63
2019-03-23T00:15:46.126Z,152.80
2019-03-23T00:20:49.138Z,148.00
2019-03-23T00:25:52.244Z,140.27
2019-03-23T00:30:55.289Z,126.40
2019-03-23T00:35:58.395Z,111.83
2019-03-23T00:41:01.431Z,124.43
2019-03-23T00:46:04.481Z,133.27
2019-03-23T00:51:07.519Z,142.27
2019-03-23T00:56:10.543Z,128.73
2019-03-23T01:01:13.571Z,144.93
2019-03-23T01:06:16.610Z,141.70
2019-03-23T01:11:19.636Z,138.23
2019-03-23T01:16:22.685Z,144.73
2019-03-23T01:21:27.612Z,131.53
2019-03-23T01:26:30.568Z,140.10
2019-03-23T01:31:33.623Z,140.53
2019-03-23T01:36:36.646Z,138.77
2019-03-23T01:41:39.698Z,148.57
2019-03-23T01:46:42.730Z,154.60
2019-03-23T01:51:45.783Z,158.83
2019-03-23T01:56:48.805Z,152.70
2019-03-23T02:01:51.830Z,155.23
2019-03-23T02:06:54.880Z,157.07
2019-03-23T02:11:58.295Z,154.17
2019-03-23T02:17:01.367Z,155.77
2019-03-23T02:22:04.423Z,160.67
2019-03-23T02:27:07.451Z,152.73
2019-03-23T02:32:10.512Z,184.97
2019-03-23T02:37:26.949Z,166.00
2019-03-23T02:42:18.364Z,198.17
2019-03-23T02:47:21.437Z,194.37
2019-03-23T02:52:24.592Z,182.77
2019-03-23T02:57:27.636Z,230.43
2019-03-23T03:02:30.683Z,238.47
2019-03-23T03:07:42.127Z,208.07
2019-03-23T03:12:38.564Z,240.33
2019-03-23T03:17:41.594Z,206.93
2019-03-23T03:22:44.710Z,218.77
2019-03-23T03:27:47.761Z,254.13
2019-03-23T03:32:50.784Z,207.80
2019-03-23T03:37:56.684Z,237.33
2019-03-23T03:42:58.674Z,246.53
2019-03-23T03:48:01.704Z,255.97
2019-03-23T03:53:04.746Z,264.00
2019-03-23T03:58:07.784Z,245.47
2019-03-23T04:03:10.815Z,217.20
2019-03-23T04:08:13.832Z,225.20
2019-03-23T04:13:16.877Z,334.30
2019-03-23T04:18:24.169Z,265.30
2019-03-23T04:23:27.186Z,348.13
2019-03-23T04:28:30.281Z,355.83
2019-03-23T04:33:33.362Z,336.47
2019-03-23T04:38:36.362Z,312.17
2019-03-23T04:43:39.396Z,325.20
2019-03-23T04:48:42.442Z,312.87
2019-03-23T04:53:45.468Z,307.23
2019-03-23T04:58:48.502Z,323.47
2019-03-23T05:03:51.551Z,280.70
2019-03-23T05:08:54.582Z,372.80
2019-03-23T05:13:57.623Z,316.40
2019-03-23T05:19:00.676Z,363.43
2019-03-23T05:24:03.722Z,366.70
2019-03-23T05:29:06.787Z,327.63
2019-03-23T05:34:09.867Z,366.80
2019-03-23T05:39:12.895Z,359.77
2019-03-23T05:44:15.930Z,333.30
2019-03-23T05:49:18.971Z,265.97
2019-03-23T05:54:26.708Z,364.90
2019-03-23T05:59:33.861Z,387.10
2019-03-23T06:04:36.848Z,343.47
2019-03-23T06:09:39.874Z,339.50
2019-03-23T06:14:42.902Z,304.80
2019-03-23T06:19:45.931Z,299.80
2019-03-23T06:24:48.983Z,309.20
2019-03-23T06:29:52.010Z,290.03
2019-03-23T06:34:55.103Z,252.13
2019-03-23T06:39:58.132Z,242.60
2019-03-23T06:45:01.164Z,210.90
2019-03-23T06:50:05.182Z,205.67
2019-03-23T06:55:08.222Z,204.60
2019-03-23T07:00:11.499Z,190.47
2019-03-23T07:05:14.527Z,186.80
2019-03-23T07:10:17.575Z,168.40
2019-03-23T07:15:20.715Z,154.60
2019-03-23T07:20:23.752Z,132.33
2019-03-23T07:25:26.806Z,126.17
2019-03-23T07:30:29.832Z,116.70
2019-03-23T07:35:32.899Z,114.63
2019-03-23T07:40:35.947Z,104.40
2019-03-23T07:45:38.983Z,108.70
2019-03-23T07:50:42.039Z,103.83
2019-03-23T07:55:45.074Z,99.60
2019-03-23T08:00:48.145Z,96.23
2019-03-23T08:05:51.224Z,96.10
2019-03-23T08:10:54.267Z,95.63
2019-03-23T08:15:57.310Z,99.23
2019-03-23T08:21:00.352Z,87.40
2019-03-23T08:26:03.399Z,83.00
2019-03-23T08:31:06.437Z,90.67
2019-03-23T08:36:09.502Z,80.33
2019-03-23T08:41:12.539Z,88.00
2019-03-23T08:46:15.587Z,77.73
2019-03-23T08:51:18.627Z,82.53
2019-03-23T08:56:21.752Z,83.57
2019-03-23T09:01:24.812Z,80.60
2019-03-23T09:06:27.847Z,76.40
2019-03-23T09:11:30.887Z,74.37
2019-03-23T09:16:33.943Z,75.73
2019-03-23T09:21:36.991Z,79.50
2019-03-23T09:26:40.088Z,78.00
2019-03-23T09:31:43.135Z,74.20
2019-03-23T09:36:46.246Z,79.57
2019-03-23T09:41:49.287Z,74.57
2019-03-23T09:46:52.339Z,74.00
2019-03-23T09:51:55.367Z,70.97
2019-03-23T09:56:59.615Z,65.33
2019-03-23T10:02:02.875Z,68.13
2019-03-23T10:07:05.913Z,69.83
2019-03-23T10:12:08.969Z,70.57
2019-03-23T10:17:11.994Z,69.77
2019-03-23T10:22:15.036Z,70.83
2019-03-23T10:27:18.144Z,65.87
2019-03-23T10:32:21.172Z,60.93
2019-03-23T10:37:26.009Z,59.97
2019-03-23T10:42:29.056Z,61.70
2019-03-23T10:47:32.143Z,63.30
2019-03-23T10:52:35.203Z,61.80
2019-03-23T10:57:38.235Z,58.40
2019-03-23T11:02:41.277Z,59.93
2019-03-23T11:07:44.332Z,58.47
2019-03-23T11:12:47.385Z,57.87
2019-03-23T11:17:50.415Z,53.03
2019-03-23T11:22:53.480Z,49.70
2019-03-23T11:27:56.560Z,52.63
2019-03-23T11:32:59.600Z,50.17
2019-03-23T11:38:02.836Z,40.97
2019-03-23T11:43:05.935Z,37.30
2019-03-23T11:48:09.064Z,41.77
2019-03-23T11:53:12.099Z,33.30
2019-03-23T11:58:15.123Z,19.10
2019-03-23T12:03:18.219Z,21.00
2019-03-23T12:08:21.285Z,27.33
2019-03-23T12:13:24.291Z,18.87
2019-03-23T12:18:27.362Z,17.43
2019-03-23T12:23:30.431Z,17.70
2019-03-23T12:28:33.489Z,14.47
2019-03-23T12:33:36.531Z,10.27
2019-03-23T12:38:39.606Z,14.03
2019-03-23T12:43:42.648Z,9.47
2019-03-23T12:48:45.680Z,13.90
2019-03-23T12:53:48.742Z,15.23
2019-03-23T12:58:51.770Z,15.70
2019-03-23T13:03:54.802Z,18.83
2019-03-23T13:08:57.835Z,15.50
2019-03-23T13:14:00.869Z,11.53
2019-03-23T13:19:03.912Z,8.30
2019-03-23T13:24:06.947Z,10.80
2019-03-23T13:29:09.981Z,10.53
2019-03-23T13:34:13.034Z,17.07
2019-03-23T13:39:16.109Z,8.63
2019-03-23T13:44:19.219Z,14.40
2019-03-23T13:49:22.247Z,14.40
2019-03-23T13:54:26.157Z,17.13
2019-03-23T13:59:29.195Z,12.37
2019-03-23T14:04:32.235Z,13.43
2019-03-23T14:09:35.500Z,7.43
2019-03-23T14:14:38.535Z,16.77
2019-03-23T14:19:41.560Z,11.70
2019-03-23T14:24:45.406Z,14.37
2019-03-23T14:29:48.537Z,15.57
2019-03-23T14:34:51.583Z,11.60
2019-03-23T14:39:54.663Z,16.70
2019-03-23T14:44:57.716Z,10.90
2019-03-23T14:50:00.744Z,18.47
2019-03-23T14:55:04.018Z,17.03
2019-03-23T15:00:08.402Z,14.33
2019-03-23T15:05:11.550Z,10.30
2019-03-23T15:10:14.622Z,13.90
2019-03-23T15:15:17.682Z,10.73
2019-03-23T15:20:20.719Z,10.00
2019-03-23T15:25:23.765Z,15.63
2019-03-23T15:30:26.851Z,16.07
2019-03-23T15:35:29.912Z,22.87
2019-03-23T15:40:32.954Z,15.27
2019-03-23T15:45:35.986Z,13.33
2019-03-23T15:50:39.059Z,12.23
2019-03-23T15:55:42.120Z,10.17
2019-03-23T16:00:45.164Z,10.57
2019-03-23T16:05:48.210Z,17.80
2019-03-23T16:10:51.247Z,9.80
2019-03-23T16:15:54.280Z,16.37
2019-03-23T16:20:57.309Z,11.97
2019-03-23T16:26:00.334Z,15.77
2019-03-23T16:31:03.370Z,17.50
2019-03-23T16:36:06.401Z,16.73
2019-03-23T16:41:09.491Z,17.23
2019-03-23T16:46:12.605Z,20.17
2019-03-23T16:51:17.132Z,14.20
2019-03-23T16:56:20.175Z,15.83
2019-03-23T17:01:23.222Z,15.77
2019-03-23T17:06:26.282Z,17.40
2019-03-23T17:11:29.319Z,17.70
2019-03-23T17:16:32.346Z,16.43
2019-03-23T17:21:35.374Z,17.53
2019-03-23T17:26:38.398Z,18.57
2019-03-23T17:31:41.524Z,19.30
2019-03-23T17:36:44.570Z,27.43
2019-03-23T17:41:47.680Z,26.63
2019-03-23T17:46:50.710Z,21.60
2019-03-23T17:51:55.496Z,24.93
2019-03-23T17:56:59.767Z,15.90
2019-03-23T18:02:02.866Z,19.97
2019-03-23T18:07:05.883Z,23.40
2019-03-23T18:12:08.976Z,19.70
2019-03-23T18:17:12.062Z,16.63
2019-03-23T18:22:15.122Z,18.07
2019-03-23T18:27:18.161Z,19.73
2019-03-23T18:32:21.215Z,19.47
2019-03-23T18:37:24.255Z,17.13
2019-03-23T18:42:27.300Z,44.33
2019-03-23T18:47:30.358Z,33.80
2019-03-23T18:52:33.400Z,19.67
2019-03-23T18:57:36.485Z,27.77
2019-03-23T19:02:39.562Z,30.10
2019-03-23T19:07:42.570Z,23.97
2019-03-23T19:12:45.606Z,31.07
2019-03-23T19:17:48.672Z,21.90
